Hinton, Canada
Current Conditions -  °F | °C
As of 12:18 PM on Thursday 30 Oct 2014 (Local Time) from CYET Reporting Station
Haze Haze  
Wind Chill: 23°   Ceiling: 200
Heat Index: 30°   Visibility: 0.62mi
Dew Point: 30°   Wind: 7mph
Humidity: 100%   Direction: 60°ENE
Pressure: 30.04"   Gusts: NA
Location:  53.4°N, 117.58°W
Report Text: CYET 301818Z AUTO 06006KT 5/8SM BR OVC002 M01/M01 A3004 RMK SLP213
Loading
Personal Weather Stations






























Interactive Weather Map
Tropical Storm Tracking
New forecast layout! Learn more

10-Day Weather Forecast

Advertisements
Track Severe Weather on mobile